sensor_id;sensor_type;location;lat;lon;timestamp;pressure;altitude;pressure_sealevel;temperature;humidity
42887;BME280;29032;56.028;92.904;2023-09-19T00:02:29;99927.31;;;13.28;61.57
42887;BME280;29032;56.028;92.904;2023-09-19T00:07:31;99935.44;;;13.26;61.41
42887;BME280;29032;56.028;92.904;2023-09-19T00:12:34;99935.06;;;13.35;61.67
42887;BME280;29032;56.028;92.904;2023-09-19T00:17:36;99940.41;;;13.33;61.43
42887;BME280;29032;56.028;92.904;2023-09-19T00:22:40;99940.63;;;13.35;61.10
42887;BME280;29032;56.028;92.904;2023-09-19T00:27:43;99941.53;;;13.43;61.25
42887;BME280;29032;56.028;92.904;2023-09-19T00:32:46;99938.75;;;13.43;60.94
42887;BME280;29032;56.028;92.904;2023-09-19T00:37:49;99945.59;;;13.42;60.80
42887;BME280;29032;56.028;92.904;2023-09-19T00:42:57;99946.75;;;13.52;61.06
42887;BME280;29032;56.028;92.904;2023-09-19T00:48:01;99947.09;;;13.43;61.16
42887;BME280;29032;56.028;92.904;2023-09-19T00:53:04;99950.44;;;13.42;61.24
42887;BME280;29032;56.028;92.904;2023-09-19T00:58:07;99951.19;;;13.42;61.28
42887;BME280;29032;56.028;92.904;2023-09-19T01:03:10;99954.03;;;13.37;61.88
42887;BME280;29032;56.028;92.904;2023-09-19T01:08:12;99950.63;;;13.44;61.83
42887;BME280;29032;56.028;92.904;2023-09-19T01:13:21;99964.75;;;13.51;61.81
42887;BME280;29032;56.028;92.904;2023-09-19T01:18:30;99959.50;;;13.48;62.51
42887;BME280;29032;56.028;92.904;2023-09-19T01:23:59;99964.69;;;13.57;62.21
42887;BME280;29032;56.028;92.904;2023-09-19T01:29:26;99958.50;;;13.64;61.84
42887;BME280;29032;56.028;92.904;2023-09-19T01:34:47;99971.69;;;13.64;62.12
42887;BME280;29032;56.028;92.904;2023-09-19T01:39:52;99964.75;;;13.51;62.38
42887;BME280;29032;56.028;92.904;2023-09-19T01:44:59;99968.22;;;13.57;62.75
42887;BME280;29032;56.028;92.904;2023-09-19T01:50:11;99972.81;;;13.74;62.17
42887;BME280;29032;56.028;92.904;2023-09-19T01:55:14;99967.31;;;13.68;62.40
42887;BME280;29032;56.028;92.904;2023-09-19T02:00:21;99964.59;;;13.81;62.20
42887;BME280;29032;56.028;92.904;2023-09-19T02:05:26;99963.22;;;13.88;62.44
42887;BME280;29032;56.028;92.904;2023-09-19T02:10:29;99963.22;;;13.88;62.59
42887;BME280;29032;56.028;92.904;2023-09-19T02:15:31;99965.38;;;13.95;61.86
42887;BME280;29032;56.028;92.904;2023-09-19T02:20:34;99966.69;;;13.94;62.33
42887;BME280;29032;56.028;92.904;2023-09-19T02:25:36;99963.03;;;13.99;62.00
42887;BME280;29032;56.028;92.904;2023-09-19T02:30:38;99966.31;;;14.17;61.93
42887;BME280;29032;56.028;92.904;2023-09-19T02:35:42;99966.75;;;14.34;61.65
42887;BME280;29032;56.028;92.904;2023-09-19T02:40:44;99957.63;;;14.33;61.21
42887;BME280;29032;56.028;92.904;2023-09-19T02:45:46;99958.38;;;14.34;61.24
42887;BME280;29032;56.028;92.904;2023-09-19T02:50:51;99965.81;;;14.45;61.26
42887;BME280;29032;56.028;92.904;2023-09-19T02:55:53;99964.75;;;14.48;62.03
42887;BME280;29032;56.028;92.904;2023-09-19T03:00:56;99961.91;;;14.67;61.12
42887;BME280;29032;56.028;92.904;2023-09-19T03:06:00;99966.19;;;14.81;60.98
42887;BME280;29032;56.028;92.904;2023-09-19T03:11:04;99947.28;;;14.87;60.71
42887;BME280;29032;56.028;92.904;2023-09-19T03:16:06;99955.44;;;14.85;60.46
42887;BME280;29032;56.028;92.904;2023-09-19T03:21:09;99952.22;;;14.94;60.52
42887;BME280;29032;56.028;92.904;2023-09-19T03:26:12;99965.66;;;14.96;59.96
42887;BME280;29032;56.028;92.904;2023-09-19T03:31:14;99959.50;;;14.97;60.10
42887;BME280;29032;56.028;92.904;2023-09-19T03:36:18;99952.41;;;15.09;60.10
42887;BME280;29032;56.028;92.904;2023-09-19T03:41:20;99946.16;;;15.16;59.90
42887;BME280;29032;56.028;92.904;2023-09-19T03:46:22;99950.66;;;15.19;59.79
42887;BME280;29032;56.028;92.904;2023-09-19T03:51:27;99934.72;;;15.28;60.17
42887;BME280;29032;56.028;92.904;2023-09-19T03:56:29;99932.03;;;15.35;59.75
42887;BME280;29032;56.028;92.904;2023-09-19T04:01:31;99923.94;;;15.45;59.58
42887;BME280;29032;56.028;92.904;2023-09-19T04:06:35;99922.03;;;15.61;58.55
42887;BME280;29032;56.028;92.904;2023-09-19T04:11:37;99920.22;;;15.63;58.39
42887;BME280;29032;56.028;92.904;2023-09-19T04:16:39;99924.38;;;15.70;57.40
42887;BME280;29032;56.028;92.904;2023-09-19T04:21:43;99924.00;;;15.87;57.24
42887;BME280;29032;56.028;92.904;2023-09-19T04:26:45;99920.38;;;15.99;56.16
42887;BME280;29032;56.028;92.904;2023-09-19T04:31:47;99916.59;;;16.18;56.72
42887;BME280;29032;56.028;92.904;2023-09-19T04:36:51;99911.16;;;16.41;56.75
42887;BME280;29032;56.028;92.904;2023-09-19T04:41:53;99902.06;;;16.48;58.36
42887;BME280;29032;56.028;92.904;2023-09-19T04:46:55;99901.94;;;16.61;56.63
42887;BME280;29032;56.028;92.904;2023-09-19T04:51:59;99895.69;;;16.76;54.33
42887;BME280;29032;56.028;92.904;2023-09-19T04:57:01;99893.88;;;16.86;52.79
42887;BME280;29032;56.028;92.904;2023-09-19T05:02:03;99893.91;;;16.94;53.79
42887;BME280;29032;56.028;92.904;2023-09-19T05:07:07;99893.59;;;17.05;53.21
42887;BME280;29032;56.028;92.904;2023-09-19T05:12:09;99889.47;;;17.06;52.57
42887;BME280;29032;56.028;92.904;2023-09-19T05:17:11;99885.72;;;17.11;51.43
42887;BME280;29032;56.028;92.904;2023-09-19T05:22:14;99885.81;;;17.26;51.03
42887;BME280;29032;56.028;92.904;2023-09-19T05:27:17;99881.88;;;17.37;50.88
42887;BME280;29032;56.028;92.904;2023-09-19T05:32:19;99877.25;;;17.55;52.06
42887;BME280;29032;56.028;92.904;2023-09-19T05:37:23;99881.41;;;17.84;49.60
42887;BME280;29032;56.028;92.904;2023-09-19T05:42:25;99875.44;;;18.03;50.80
42887;BME280;29032;56.028;92.904;2023-09-19T05:47:27;99873.50;;;18.36;48.88
42887;BME280;29032;56.028;92.904;2023-09-19T05:52:30;99867.44;;;18.70;49.53
42887;BME280;29032;56.028;92.904;2023-09-19T05:57:32;99867.00;;;18.89;44.85
42887;BME280;29032;56.028;92.904;2023-09-19T06:02:35;99870.28;;;19.11;45.77
42887;BME280;29032;56.028;92.904;2023-09-19T06:07:39;99864.50;;;19.34;46.30
42887;BME280;29032;56.028;92.904;2023-09-19T06:12:42;99858.09;;;19.41;42.85
42887;BME280;29032;56.028;92.904;2023-09-19T06:17:47;99855.09;;;19.46;44.07
42887;BME280;29032;56.028;92.904;2023-09-19T06:22:51;99849.81;;;19.43;45.28
42887;BME280;29032;56.028;92.904;2023-09-19T06:27:53;99840.63;;;19.42;44.21
42887;BME280;29032;56.028;92.904;2023-09-19T06:32:58;99836.22;;;19.56;43.89
42887;BME280;29032;56.028;92.904;2023-09-19T06:38:04;99830.47;;;19.72;43.27
42887;BME280;29032;56.028;92.904;2023-09-19T06:43:06;99826.44;;;19.82;44.07
42887;BME280;29032;56.028;92.904;2023-09-19T06:48:08;99829.13;;;19.98;41.95
42887;BME280;29032;56.028;92.904;2023-09-19T06:53:12;99820.78;;;20.07;42.97
42887;BME280;29032;56.028;92.904;2023-09-19T06:58:14;99821.94;;;20.04;42.54
42887;BME280;29032;56.028;92.904;2023-09-19T07:03:16;99823.09;;;20.01;45.22
42887;BME280;29032;56.028;92.904;2023-09-19T07:08:20;99809.34;;;20.05;45.99
42887;BME280;29032;56.028;92.904;2023-09-19T07:13:22;99799.81;;;20.01;46.04
42887;BME280;29032;56.028;92.904;2023-09-19T07:23:27;99796.34;;;20.10;43.28
42887;BME280;29032;56.028;92.904;2023-09-19T07:28:29;99795.25;;;20.05;45.63
42887;BME280;29032;56.028;92.904;2023-09-19T07:38:34;99786.97;;;20.07;44.58
42887;BME280;29032;56.028;92.904;2023-09-19T07:43:36;99777.53;;;19.95;44.74
42887;BME280;29032;56.028;92.904;2023-09-19T07:48:39;99774.69;;;19.95;46.07
42887;BME280;29032;56.028;92.904;2023-09-19T07:53:42;99770.72;;;19.98;45.36
42887;BME280;29032;56.028;92.904;2023-09-19T07:58:45;99770.22;;;19.92;46.71
42887;BME280;29032;56.028;92.904;2023-09-19T08:03:48;99772.78;;;19.98;45.92
42887;BME280;29032;56.028;92.904;2023-09-19T08:08:53;99770.06;;;20.07;45.77
42887;BME280;29032;56.028;92.904;2023-09-19T08:13:55;99769.88;;;20.05;46.05
42887;BME280;29032;56.028;92.904;2023-09-19T08:18:58;99766.66;;;20.09;44.26
42887;BME280;29032;56.028;92.904;2023-09-19T08:24:01;99766.25;;;20.12;47.06
42887;BME280;29032;56.028;92.904;2023-09-19T08:29:03;99759.63;;;20.00;48.03
42887;BME280;29032;56.028;92.904;2023-09-19T08:34:06;99754.88;;;19.85;48.99
42887;BME280;29032;56.028;92.904;2023-09-19T08:39:09;99747.16;;;19.69;48.75
42887;BME280;29032;56.028;92.904;2023-09-19T08:44:11;99750.78;;;19.44;50.88
42887;BME280;29032;56.028;92.904;2023-09-19T08:49:19;99744.06;;;19.57;45.83
42887;BME280;29032;56.028;92.904;2023-09-19T08:54:25;99746.00;;;19.72;45.06
42887;BME280;29032;56.028;92.904;2023-09-19T08:59:30;99736.25;;;19.73;44.98
42887;BME280;29032;56.028;92.904;2023-09-19T09:04:34;99734.41;;;19.68;49.47
42887;BME280;29032;56.028;92.904;2023-09-19T09:09:40;99725.63;;;19.64;50.66
42887;BME280;29032;56.028;92.904;2023-09-19T09:14:45;99728.13;;;19.60;51.22
42887;BME280;29032;56.028;92.904;2023-09-19T09:19:48;99722.97;;;19.48;51.52
42887;BME280;29032;56.028;92.904;2023-09-19T09:24:56;99719.25;;;19.46;52.13
42887;BME280;29032;56.028;92.904;2023-09-19T09:29:59;99716.69;;;19.33;52.55
42887;BME280;29032;56.028;92.904;2023-09-19T09:35:02;99716.34;;;19.53;44.39
42887;BME280;29032;56.028;92.904;2023-09-19T09:40:15;99711.66;;;19.73;43.78
42887;BME280;29032;56.028;92.904;2023-09-19T09:45:20;99710.09;;;19.80;46.68
42887;BME280;29032;56.028;92.904;2023-09-19T09:50:27;99718.13;;;19.83;44.88
42887;BME280;29032;56.028;92.904;2023-09-19T09:55:57;99709.56;;;19.91;47.82
42887;BME280;29032;56.028;92.904;2023-09-19T10:01:01;99707.59;;;19.67;48.11
42887;BME280;29032;56.028;92.904;2023-09-19T10:06:09;99702.44;;;19.55;50.54
42887;BME280;29032;56.028;92.904;2023-09-19T10:11:27;99709.66;;;19.66;49.10
42887;BME280;29032;56.028;92.904;2023-09-19T10:16:31;99698.84;;;19.38;50.79
42887;BME280;29032;56.028;92.904;2023-09-19T10:21:35;99704.53;;;19.30;52.24
42887;BME280;29032;56.028;92.904;2023-09-19T10:26:40;99697.66;;;19.23;52.23
42887;BME280;29032;56.028;92.904;2023-09-19T10:31:44;99699.19;;;19.17;53.28
42887;BME280;29032;56.028;92.904;2023-09-19T10:36:56;99695.19;;;19.02;52.89
42887;BME280;29032;56.028;92.904;2023-09-19T10:42:04;99691.66;;;18.94;53.01
42887;BME280;29032;56.028;92.904;2023-09-19T10:47:08;99695.75;;;18.76;53.70
42887;BME280;29032;56.028;92.904;2023-09-19T10:52:13;99698.38;;;18.74;53.32
42887;BME280;29032;56.028;92.904;2023-09-19T10:57:22;99686.94;;;18.72;53.61
42887;BME280;29032;56.028;92.904;2023-09-19T11:02:26;99687.81;;;18.49;54.34
42887;BME280;29032;56.028;92.904;2023-09-19T11:07:32;99693.63;;;18.44;54.85
42887;BME280;29032;56.028;92.904;2023-09-19T11:12:57;99697.28;;;18.29;55.59
42887;BME280;29032;56.028;92.904;2023-09-19T11:18:01;99694.00;;;18.08;55.47
42887;BME280;29032;56.028;92.904;2023-09-19T11:23:24;99699.47;;;17.98;54.74
42887;BME280;29032;56.028;92.904;2023-09-19T11:28:33;99695.38;;;17.91;55.27
42887;BME280;29032;56.028;92.904;2023-09-19T11:33:38;99693.53;;;17.71;55.33
42887;BME280;29032;56.028;92.904;2023-09-19T11:39:01;99696.34;;;17.71;55.55
42887;BME280;29032;56.028;92.904;2023-09-19T11:44:35;99701.41;;;17.57;55.92
42887;BME280;29032;56.028;92.904;2023-09-19T11:55:01;99696.19;;;17.23;57.98
42887;BME280;29032;56.028;92.904;2023-09-19T12:00:19;99698.06;;;17.36;57.29
42887;BME280;29032;56.028;92.904;2023-09-19T12:05:29;99698.81;;;17.29;57.32
42887;BME280;29032;56.028;92.904;2023-09-19T12:10:35;99695.06;;;17.11;58.44
42887;BME280;29032;56.028;92.904;2023-09-19T12:15:49;99711.88;;;17.11;57.30
42887;BME280;29032;56.028;92.904;2023-09-19T12:20:52;99702.53;;;16.86;57.22
42887;BME280;29032;56.028;92.904;2023-09-19T12:25:56;99708.88;;;16.78;59.20
42887;BME280;29032;56.028;92.904;2023-09-19T12:31:07;99706.28;;;17.11;56.14
42887;BME280;29032;56.028;92.904;2023-09-19T12:36:21;99710.34;;;16.79;58.15
42887;BME280;29032;56.028;92.904;2023-09-19T12:41:23;99718.53;;;16.62;58.62
42887;BME280;29032;56.028;92.904;2023-09-19T12:46:27;99718.91;;;16.66;58.75
42887;BME280;29032;56.028;92.904;2023-09-19T12:51:35;99722.09;;;16.70;59.26
42887;BME280;29032;56.028;92.904;2023-09-19T12:56:40;99717.00;;;16.61;59.51
42887;BME280;29032;56.028;92.904;2023-09-19T13:01:44;99725.22;;;16.59;60.16
42887;BME280;29032;56.028;92.904;2023-09-19T13:06:46;99716.63;;;16.57;59.55
42887;BME280;29032;56.028;92.904;2023-09-19T13:11:48;99741.72;;;16.70;58.86
42887;BME280;29032;56.028;92.904;2023-09-19T13:17:00;99738.03;;;16.91;58.38
42887;BME280;29032;56.028;92.904;2023-09-19T13:22:02;99738.56;;;16.81;58.48
42887;BME280;29032;56.028;92.904;2023-09-19T13:27:05;99744.38;;;16.83;56.44
42887;BME280;29032;56.028;92.904;2023-09-19T13:32:08;99748.13;;;16.86;58.51
42887;BME280;29032;56.028;92.904;2023-09-19T13:37:10;99744.84;;;16.67;59.12
42887;BME280;29032;56.028;92.904;2023-09-19T13:42:12;99746.91;;;16.66;56.59
42887;BME280;29032;56.028;92.904;2023-09-19T13:47:16;99753.13;;;16.72;58.07
42887;BME280;29032;56.028;92.904;2023-09-19T13:52:18;99756.94;;;16.54;58.75
42887;BME280;29032;56.028;92.904;2023-09-19T13:57:20;99765.50;;;16.41;59.43
42887;BME280;29032;56.028;92.904;2023-09-19T14:02:23;99761.22;;;16.47;59.14
42887;BME280;29032;56.028;92.904;2023-09-19T14:07:26;99765.88;;;16.37;58.82
42887;BME280;29032;56.028;92.904;2023-09-19T14:12:28;99769.16;;;16.20;59.07
42887;BME280;29032;56.028;92.904;2023-09-19T14:17:31;99771.03;;;16.25;59.05
42887;BME280;29032;56.028;92.904;2023-09-19T14:22:33;99772.13;;;16.22;59.49
42887;BME280;29032;56.028;92.904;2023-09-19T14:27:35;99772.13;;;16.22;59.17
42887;BME280;29032;56.028;92.904;2023-09-19T14:32:39;99772.94;;;16.30;59.42
42887;BME280;29032;56.028;92.904;2023-09-19T14:37:41;99769.50;;;16.17;58.96
42887;BME280;29032;56.028;92.904;2023-09-19T14:42:43;99766.66;;;16.09;59.57
42887;BME280;29032;56.028;92.904;2023-09-19T14:47:47;99767.84;;;16.21;57.74
42887;BME280;29032;56.028;92.904;2023-09-19T14:52:49;99763.94;;;16.24;57.51
42887;BME280;29032;56.028;92.904;2023-09-19T14:57:51;99767.28;;;16.23;58.75
42887;BME280;29032;56.028;92.904;2023-09-19T15:02:55;99775.13;;;16.24;57.95
42887;BME280;29032;56.028;92.904;2023-09-19T15:07:57;99778.44;;;16.15;57.75
42887;BME280;29032;56.028;92.904;2023-09-19T15:12:59;99773.94;;;16.12;58.20
42887;BME280;29032;56.028;92.904;2023-09-19T15:18:03;99775.47;;;16.13;59.34
42887;BME280;29032;56.028;92.904;2023-09-19T15:23:05;99773.50;;;16.00;58.95
42887;BME280;29032;56.028;92.904;2023-09-19T15:28:07;99778.97;;;15.78;59.63
42887;BME280;29032;56.028;92.904;2023-09-19T15:33:10;99783.31;;;15.86;59.46
42887;BME280;29032;56.028;92.904;2023-09-19T15:38:13;99796.75;;;15.67;59.65
42887;BME280;29032;56.028;92.904;2023-09-19T15:43:15;99787.28;;;15.49;60.45
42887;BME280;29032;56.028;92.904;2023-09-19T15:48:18;99783.22;;;15.50;60.27
42887;BME280;29032;56.028;92.904;2023-09-19T15:53:20;99789.06;;;15.39;60.61
42887;BME280;29032;56.028;92.904;2023-09-19T15:58:22;99785.16;;;15.42;60.54
42887;BME280;29032;56.028;92.904;2023-09-19T16:03:26;99791.44;;;15.56;59.33
42887;BME280;29032;56.028;92.904;2023-09-19T16:08:27;99780.59;;;15.52;59.78
42887;BME280;29032;56.028;92.904;2023-09-19T16:13:29;99767.97;;;15.59;58.60
42887;BME280;29032;56.028;92.904;2023-09-19T16:18:33;99774.38;;;15.67;58.23
42887;BME280;29032;56.028;92.904;2023-09-19T16:23:35;99773.22;;;15.62;57.91
42887;BME280;29032;56.028;92.904;2023-09-19T16:28:37;99774.72;;;15.63;57.86
42887;BME280;29032;56.028;92.904;2023-09-19T16:33:43;99775.13;;;15.67;57.93
42887;BME280;29032;56.028;92.904;2023-09-19T16:38:47;99774.66;;;15.56;57.82
42887;BME280;29032;56.028;92.904;2023-09-19T16:43:49;99772.28;;;15.39;58.90
42887;BME280;29032;56.028;92.904;2023-09-19T16:48:52;99776.38;;;15.38;59.05
42887;BME280;29032;56.028;92.904;2023-09-19T16:53:54;99781.03;;;15.14;59.50
42887;BME280;29032;56.028;92.904;2023-09-19T16:58:57;99779.34;;;14.98;59.46
42887;BME280;29032;56.028;92.904;2023-09-19T17:04:00;99766.97;;;14.86;60.44
42887;BME280;29032;56.028;92.904;2023-09-19T17:09:03;99765.28;;;14.70;60.49
42887;BME280;29032;56.028;92.904;2023-09-19T17:14:05;99762.38;;;14.62;60.75
42887;BME280;29032;56.028;92.904;2023-09-19T17:19:08;99767.00;;;14.59;60.56
42887;BME280;29032;56.028;92.904;2023-09-19T17:24:10;99760.56;;;14.51;60.85
42887;BME280;29032;56.028;92.904;2023-09-19T17:29:12;99755.81;;;14.59;60.10
42887;BME280;29032;56.028;92.904;2023-09-19T17:34:16;99754.44;;;14.66;60.00
42887;BME280;29032;56.028;92.904;2023-09-19T17:39:18;99754.00;;;14.62;59.85
42887;BME280;29032;56.028;92.904;2023-09-19T17:44:20;99749.19;;;14.62;58.98
42887;BME280;29032;56.028;92.904;2023-09-19T17:49:23;99752.19;;;14.64;58.92
42887;BME280;29032;56.028;92.904;2023-09-19T17:54:25;99753.34;;;14.56;59.21
42887;BME280;29032;56.028;92.904;2023-09-19T17:59:27;99753.06;;;14.46;59.53
42887;BME280;29032;56.028;92.904;2023-09-19T18:04:31;99749.44;;;14.25;59.78
42887;BME280;29032;56.028;92.904;2023-09-19T18:09:33;99748.16;;;13.99;60.39
42887;BME280;29032;56.028;92.904;2023-09-19T18:14:35;99748.81;;;13.79;60.70
42887;BME280;29032;56.028;92.904;2023-09-19T18:19:39;99748.06;;;13.78;61.28
42887;BME280;29032;56.028;92.904;2023-09-19T18:24:41;99753.00;;;13.86;61.67
42887;BME280;29032;56.028;92.904;2023-09-19T18:29:43;99742.81;;;14.01;60.99
42887;BME280;29032;56.028;92.904;2023-09-19T18:34:46;99754.63;;;13.94;60.50
42887;BME280;29032;56.028;92.904;2023-09-19T18:39:48;99758.81;;;13.74;61.37
42887;BME280;29032;56.028;92.904;2023-09-19T18:44:50;99761.38;;;13.86;61.34
42887;BME280;29032;56.028;92.904;2023-09-19T18:49:54;99753.84;;;13.94;60.75
42887;BME280;29032;56.028;92.904;2023-09-19T18:54:56;99752.69;;;13.76;61.14
42887;BME280;29032;56.028;92.904;2023-09-19T18:59:58;99752.66;;;13.63;61.40
42887;BME280;29032;56.028;92.904;2023-09-19T19:05:02;99749.66;;;13.61;61.83
42887;BME280;29032;56.028;92.904;2023-09-19T19:10:05;99742.91;;;13.56;61.67
42887;BME280;29032;56.028;92.904;2023-09-19T19:15:08;99748.75;;;13.39;61.54
42887;BME280;29032;56.028;92.904;2023-09-19T19:20:12;99744.31;;;13.30;61.56
42887;BME280;29032;56.028;92.904;2023-09-19T19:25:14;99745.06;;;13.18;61.61
42887;BME280;29032;56.028;92.904;2023-09-19T19:30:16;99744.69;;;13.08;62.22
42887;BME280;29032;56.028;92.904;2023-09-19T19:35:20;99734.75;;;13.13;61.74
42887;BME280;29032;56.028;92.904;2023-09-19T19:40:22;99738.69;;;13.04;62.36
42887;BME280;29032;56.028;92.904;2023-09-19T19:45:24;99745.84;;;12.99;61.51
42887;BME280;29032;56.028;92.904;2023-09-19T19:50:28;99751.28;;;12.92;62.44
42887;BME280;29032;56.028;92.904;2023-09-19T19:55:31;99735.72;;;12.83;62.94
42887;BME280;29032;56.028;92.904;2023-09-19T20:00:33;99729.06;;;12.86;62.72
42887;BME280;29032;56.028;92.904;2023-09-19T20:05:38;99739.22;;;13.02;62.62
42887;BME280;29032;56.028;92.904;2023-09-19T20:10:40;99735.97;;;12.98;62.22
42887;BME280;29032;56.028;92.904;2023-09-19T20:15:43;99741.50;;;13.17;62.03
42887;BME280;29032;56.028;92.904;2023-09-19T20:20:56;99736.31;;;13.40;61.07
42887;BME280;29032;56.028;92.904;2023-09-19T20:26:01;99732.81;;;13.53;60.87
42887;BME280;29032;56.028;92.904;2023-09-19T20:31:05;99732.19;;;13.60;60.44
42887;BME280;29032;56.028;92.904;2023-09-19T20:36:10;99729.06;;;13.64;59.69
42887;BME280;29032;56.028;92.904;2023-09-19T20:41:12;99734.00;;;13.57;59.14
42887;BME280;29032;56.028;92.904;2023-09-19T20:46:14;99726.06;;;13.62;59.18
42887;BME280;29032;56.028;92.904;2023-09-19T20:51:17;99727.78;;;13.65;59.03
42887;BME280;29032;56.028;92.904;2023-09-19T20:56:19;99722.84;;;13.57;59.16
42887;BME280;29032;56.028;92.904;2023-09-19T21:01:21;99723.25;;;13.48;59.60
42887;BME280;29032;56.028;92.904;2023-09-19T21:06:25;99721.66;;;13.53;59.80
42887;BME280;29032;56.028;92.904;2023-09-19T21:11:27;99720.69;;;13.50;59.22
42887;BME280;29032;56.028;92.904;2023-09-19T21:16:29;99720.69;;;13.50;59.54
42887;BME280;29032;56.028;92.904;2023-09-19T21:21:33;99722.84;;;13.57;60.44
42887;BME280;29032;56.028;92.904;2023-09-19T21:26:35;99721.88;;;13.55;59.99
42887;BME280;29032;56.028;92.904;2023-09-19T21:31:38;99718.00;;;13.58;60.19
42887;BME280;29032;56.028;92.904;2023-09-19T21:36:41;99721.44;;;13.64;60.91
42887;BME280;29032;56.028;92.904;2023-09-19T21:41:43;99727.38;;;13.61;60.73
42887;BME280;29032;56.028;92.904;2023-09-19T21:46:45;99732.41;;;13.62;60.01
42887;BME280;29032;56.028;92.904;2023-09-19T21:51:49;99728.75;;;13.67;60.63
42887;BME280;29032;56.028;92.904;2023-09-19T21:56:51;99728.22;;;13.69;60.17
42887;BME280;29032;56.028;92.904;2023-09-19T22:01:53;99725.44;;;13.69;60.24
42887;BME280;29032;56.028;92.904;2023-09-19T22:06:56;99728.88;;;13.75;60.06
42887;BME280;29032;56.028;92.904;2023-09-19T22:11:58;99727.78;;;13.65;59.68
42887;BME280;29032;56.028;92.904;2023-09-19T22:17:00;99729.28;;;13.66;59.55
42887;BME280;29032;56.028;92.904;2023-09-19T22:22:04;99724.91;;;13.70;59.78
42887;BME280;29032;56.028;92.904;2023-09-19T22:27:06;99726.50;;;13.66;59.92
42887;BME280;29032;56.028;92.904;2023-09-19T22:32:08;99723.69;;;13.66;59.93
42887;BME280;29032;56.028;92.904;2023-09-19T22:37:12;99723.84;;;13.73;59.88
42887;BME280;29032;56.028;92.904;2023-09-19T22:42:14;99721.25;;;13.62;60.08
42887;BME280;29032;56.028;92.904;2023-09-19T22:47:16;99722.53;;;13.61;60.39
42887;BME280;29032;56.028;92.904;2023-09-19T22:52:19;99739.56;;;13.57;60.83
42887;BME280;29032;56.028;92.904;2023-09-19T22:57:21;99734.38;;;13.35;60.80
42887;BME280;29032;56.028;92.904;2023-09-19T23:02:23;99744.38;;;13.12;61.66
42887;BME280;29032;56.028;92.904;2023-09-19T23:07:27;99743.94;;;13.08;61.66
42887;BME280;29032;56.028;92.904;2023-09-19T23:12:29;99742.78;;;12.84;61.78
42887;BME280;29032;56.028;92.904;2023-09-19T23:17:31;99741.03;;;12.81;61.88
42887;BME280;29032;56.028;92.904;2023-09-19T23:22:35;99743.41;;;12.77;61.39
42887;BME280;29032;56.028;92.904;2023-09-19T23:27:37;99746.13;;;12.64;62.02
42887;BME280;29032;56.028;92.904;2023-09-19T23:32:39;99751.91;;;12.66;62.08
42887;BME280;29032;56.028;92.904;2023-09-19T23:37:42;99749.56;;;12.70;62.25
42887;BME280;29032;56.028;92.904;2023-09-19T23:42:44;99754.06;;;12.73;62.00
42887;BME280;29032;56.028;92.904;2023-09-19T23:47:47;99752.44;;;12.64;62.32
42887;BME280;29032;56.028;92.904;2023-09-19T23:52:50;99752.88;;;12.68;61.46
42887;BME280;29032;56.028;92.904;2023-09-19T23:57:52;99758.97;;;12.67;62.36
